createdAt,value
2022-10-14T00:01:19.838Z,8.57
2022-10-14T00:03:47.371Z,9.47
2022-10-14T00:06:18.590Z,8.70
2022-10-14T00:08:47.413Z,8.45
2022-10-14T00:11:17.823Z,8.52
2022-10-14T00:13:45.532Z,8.68
2022-10-14T00:16:22.775Z,8.77
2022-10-14T00:18:50.120Z,8.52
2022-10-14T00:21:18.146Z,8.90
2022-10-14T00:23:46.791Z,8.65
2022-10-14T00:26:22.908Z,8.13
2022-10-14T00:28:53.467Z,8.32
2022-10-14T00:31:22.025Z,10.30
2022-10-14T00:33:49.390Z,9.27
2022-10-14T00:36:19.183Z,9.10
2022-10-14T00:38:47.224Z,9.95
2022-10-14T00:41:17.514Z,9.98
2022-10-14T00:44:13.136Z,9.35
2022-10-14T00:46:42.961Z,9.20
2022-10-14T00:49:15.644Z,9.77
2022-10-14T00:51:53.865Z,10.00
2022-10-14T00:54:25.710Z,9.32
2022-10-14T00:56:53.014Z,9.07
2022-10-14T00:59:20.104Z,9.93
2022-10-14T01:01:47.435Z,9.65
2022-10-14T01:04:15.829Z,9.82
2022-10-14T01:06:55.031Z,10.30
2022-10-14T01:09:33.993Z,9.73
2022-10-14T01:12:30.319Z,9.13
2022-10-14T01:15:07.329Z,9.10
2022-10-14T01:17:39.136Z,9.75
2022-10-14T01:20:24.635Z,9.80
2022-10-14T01:23:20.627Z,10.18
2022-10-14T01:26:13.402Z,9.15
2022-10-14T01:28:53.788Z,9.02
2022-10-14T01:31:25.444Z,8.88
2022-10-14T01:33:56.989Z,9.30
2022-10-14T01:36:38.506Z,9.68
2022-10-14T01:39:18.303Z,9.45
2022-10-14T01:41:51.223Z,10.07
2022-10-14T01:44:21.320Z,8.73
2022-10-14T01:46:53.371Z,9.75
2022-10-14T01:49:33.844Z,8.88
2022-10-14T01:52:16.093Z,9.27
2022-10-14T01:54:44.574Z,8.45
2022-10-14T01:57:19.517Z,8.95
2022-10-14T01:59:47.832Z,7.95
2022-10-14T02:02:14.842Z,8.48
2022-10-14T02:04:41.727Z,8.32
2022-10-14T02:07:19.280Z,8.40
2022-10-14T02:10:24.989Z,8.15
2022-10-14T02:13:07.383Z,8.80
2022-10-14T02:15:52.322Z,7.93
2022-10-14T02:18:38.929Z,7.55
2022-10-14T02:21:39.158Z,8.50
2022-10-14T02:24:12.785Z,8.52
2022-10-14T02:26:42.387Z,7.63
2022-10-14T02:29:09.538Z,7.82
2022-10-14T02:31:39.687Z,7.32
2022-10-14T02:34:11.366Z,7.50
2022-10-14T02:36:41.752Z,7.63
2022-10-14T02:39:11.822Z,7.93
2022-10-14T02:41:39.182Z,8.85
2022-10-14T02:44:08.240Z,7.38
2022-10-14T02:46:35.746Z,7.68
2022-10-14T02:49:02.560Z,9.02
2022-10-14T02:52:06.014Z,8.00
2022-10-14T02:54:39.786Z,7.47
2022-10-14T02:57:06.608Z,7.90
2022-10-14T02:59:33.281Z,8.25
2022-10-14T03:02:01.761Z,8.10
2022-10-14T03:04:29.145Z,9.65
2022-10-14T03:06:56.205Z,8.55
2022-10-14T03:09:25.511Z,7.70
2022-10-14T03:11:52.486Z,7.53
2022-10-14T03:14:21.000Z,7.47
2022-10-14T03:16:48.748Z,8.52
2022-10-14T03:19:21.914Z,7.80
2022-10-14T03:21:52.584Z,7.90
2022-10-14T03:24:21.289Z,8.02
2022-10-14T03:26:59.724Z,9.52
2022-10-14T03:29:26.566Z,7.93
2022-10-14T03:31:59.644Z,8.68
2022-10-14T03:34:32.336Z,9.13
2022-10-14T03:37:12.473Z,7.40
2022-10-14T03:42:14.763Z,9.30
2022-10-14T03:44:46.210Z,8.15
2022-10-14T03:47:17.505Z,8.15
2022-10-14T03:49:45.342Z,8.32
2022-10-14T03:52:24.369Z,8.05
2022-10-14T03:55:04.182Z,9.02
2022-10-14T03:57:31.292Z,8.13
2022-10-14T04:00:00.054Z,8.82
2022-10-14T04:02:40.792Z,8.23
2022-10-14T04:05:13.826Z,8.68
2022-10-14T04:07:43.333Z,9.00
2022-10-14T04:10:10.786Z,8.60
2022-10-14T04:12:44.243Z,8.18
2022-10-14T04:15:22.628Z,7.95
2022-10-14T04:18:05.015Z,7.00
2022-10-14T04:20:32.372Z,7.50
2022-10-14T04:23:00.913Z,8.25
2022-10-14T04:25:28.806Z,7.40
2022-10-14T04:28:02.405Z,7.57
2022-10-14T04:30:42.311Z,8.02
2022-10-14T04:33:14.547Z,7.35
2022-10-14T04:35:41.699Z,8.57
2022-10-14T04:38:14.434Z,6.70
2022-10-14T04:40:51.358Z,6.93
2022-10-14T04:43:18.964Z,8.35
2022-10-14T04:45:48.329Z,7.68
2022-10-14T04:48:24.980Z,6.90
2022-10-14T04:50:54.378Z,7.65
2022-10-14T04:53:40.302Z,6.90
2022-10-14T04:56:19.724Z,7.10
2022-10-14T04:58:56.169Z,6.50
2022-10-14T05:01:34.223Z,7.72
2022-10-14T05:04:03.012Z,6.43
2022-10-14T05:06:37.276Z,6.20
2022-10-14T05:09:06.457Z,6.85
2022-10-14T05:11:34.259Z,6.53
2022-10-14T05:14:02.080Z,6.05
2022-10-14T05:16:31.997Z,6.60
2022-10-14T05:18:58.869Z,6.55
2022-10-14T05:21:26.770Z,7.00
2022-10-14T05:24:03.505Z,7.10
2022-10-14T05:26:33.333Z,6.53
2022-10-14T05:29:04.947Z,6.07
2022-10-14T05:31:33.405Z,7.43
2022-10-14T05:34:20.890Z,6.63
2022-10-14T05:36:49.190Z,6.80
2022-10-14T05:39:18.708Z,7.22
2022-10-14T05:41:45.528Z,8.27
2022-10-14T05:44:14.350Z,7.32
2022-10-14T05:46:41.756Z,7.35
2022-10-14T05:49:10.449Z,7.80
2022-10-14T05:51:40.750Z,8.38
2022-10-14T05:54:15.459Z,8.27
2022-10-14T05:56:49.091Z,7.70
2022-10-14T05:59:49.785Z,9.02
2022-10-14T06:02:33.034Z,7.75
2022-10-14T06:05:00.930Z,7.55
2022-10-14T06:07:31.108Z,8.80
2022-10-14T06:09:59.074Z,8.48
2022-10-14T06:12:25.946Z,7.40
2022-10-14T06:14:53.022Z,7.43
2022-10-14T06:17:20.062Z,7.28
2022-10-14T06:19:47.101Z,7.75
2022-10-14T06:22:13.750Z,6.43
2022-10-14T06:24:40.496Z,7.22
2022-10-14T06:27:07.156Z,7.20
2022-10-14T06:29:37.856Z,7.43
2022-10-14T06:32:09.401Z,7.53
2022-10-14T06:34:36.369Z,7.03
2022-10-14T06:37:03.209Z,6.70
2022-10-14T06:39:30.210Z,6.85
2022-10-14T06:41:57.061Z,7.38
2022-10-14T06:44:24.091Z,6.32
2022-10-14T06:46:51.949Z,6.57
2022-10-14T06:49:18.888Z,5.88
2022-10-14T06:51:45.676Z,6.25
2022-10-14T06:54:13.438Z,5.70
2022-10-14T06:56:40.205Z,6.80
2022-10-14T06:59:06.946Z,6.57
2022-10-14T07:01:34.842Z,6.07
2022-10-14T07:04:01.879Z,5.85
2022-10-14T07:06:28.649Z,5.47
2022-10-14T07:08:55.425Z,5.88
2022-10-14T07:11:22.165Z,5.25
2022-10-14T07:13:49.006Z,5.53
2022-10-14T07:16:15.750Z,5.78
2022-10-14T07:18:42.540Z,6.03
2022-10-14T07:21:09.297Z,5.05
2022-10-14T07:23:36.113Z,5.90
2022-10-14T07:26:03.471Z,5.28
2022-10-14T07:28:34.001Z,5.25
2022-10-14T07:31:03.761Z,4.82
2022-10-14T07:33:31.324Z,5.03
2022-10-14T07:36:04.125Z,4.38
2022-10-14T07:38:31.312Z,4.95
2022-10-14T07:41:08.923Z,4.68
2022-10-14T07:43:36.124Z,4.07
2022-10-14T07:46:05.569Z,4.50
2022-10-14T07:48:45.309Z,5.45
2022-10-14T07:51:20.376Z,5.38
2022-10-14T07:53:48.502Z,4.78
2022-10-14T07:56:15.217Z,5.45
2022-10-14T07:58:44.524Z,5.72
2022-10-14T08:01:11.840Z,5.97
2022-10-14T08:03:38.914Z,4.68
2022-10-14T08:06:06.150Z,5.32
2022-10-14T08:08:33.500Z,5.88
2022-10-14T08:11:11.621Z,5.35
2022-10-14T08:13:41.952Z,5.47
2022-10-14T08:16:16.478Z,6.10
2022-10-14T08:18:44.012Z,6.18
2022-10-14T08:21:10.866Z,6.03
2022-10-14T08:23:37.783Z,5.60
2022-10-14T08:26:20.770Z,6.35
2022-10-14T08:28:48.981Z,6.32
2022-10-14T08:31:16.862Z,5.45
2022-10-14T08:33:43.811Z,5.75
2022-10-14T08:36:11.967Z,6.55
2022-10-14T08:38:39.074Z,5.40
2022-10-14T08:41:30.866Z,6.05
2022-10-14T08:44:13.523Z,5.18
2022-10-14T08:47:01.864Z,5.07
2022-10-14T08:49:50.535Z,4.38
2022-10-14T08:52:33.617Z,4.90
2022-10-14T08:55:39.300Z,4.65
2022-10-14T09:00:55.468Z,5.18
2022-10-14T09:03:24.738Z,5.28
2022-10-14T09:05:58.693Z,5.05
2022-10-14T09:08:33.097Z,5.43
2022-10-14T09:11:01.656Z,4.97
2022-10-14T09:13:36.435Z,5.45
2022-10-14T09:16:22.950Z,5.15
2022-10-14T09:18:57.883Z,4.90
2022-10-14T09:21:53.496Z,4.25
2022-10-14T09:24:31.053Z,4.13
2022-10-14T09:27:03.112Z,4.38
2022-10-14T09:29:43.619Z,3.58
2022-10-14T09:32:25.492Z,3.97
2022-10-14T09:34:56.382Z,4.22
2022-10-14T09:37:28.320Z,3.92
2022-10-14T09:40:01.372Z,3.75
2022-10-14T09:42:58.731Z,3.33
2022-10-14T09:45:28.067Z,3.67
2022-10-14T09:48:07.507Z,3.10
2022-10-14T09:50:50.719Z,2.97
2022-10-14T09:53:37.128Z,2.90
2022-10-14T09:56:07.211Z,3.63
2022-10-14T09:58:55.145Z,3.75
2022-10-14T10:01:27.550Z,2.47
2022-10-14T10:03:56.588Z,2.33
2022-10-14T10:06:28.056Z,2.20
2022-10-14T10:09:01.265Z,2.30
2022-10-14T10:11:35.881Z,2.20
2022-10-14T10:14:24.690Z,2.08
2022-10-14T10:17:18.001Z,2.00
2022-10-14T10:19:47.577Z,2.00
2022-10-14T10:22:26.287Z,1.95
2022-10-14T10:25:08.296Z,1.75
2022-10-14T10:27:46.008Z,2.15
2022-10-14T10:30:22.617Z,2.25
2022-10-14T10:32:49.341Z,1.58
2022-10-14T10:35:32.126Z,1.42
2022-10-14T10:38:23.564Z,1.60
2022-10-14T10:41:24.233Z,1.30
2022-10-14T10:44:15.689Z,1.48
2022-10-14T10:47:20.990Z,1.33
2022-10-14T10:50:15.794Z,1.13
2022-10-14T10:53:17.471Z,1.60
2022-10-14T10:55:58.771Z,2.35
2022-10-14T10:58:35.785Z,1.48
2022-10-14T11:01:24.719Z,1.58
2022-10-14T11:04:17.847Z,1.92
2022-10-14T11:07:28.817Z,1.88
2022-10-14T11:10:28.940Z,2.38
2022-10-14T11:13:45.926Z,2.67
2022-10-14T11:16:21.613Z,2.45
2022-10-14T11:19:12.369Z,2.80
2022-10-14T11:24:33.820Z,3.33
2022-10-14T11:27:08.574Z,3.85
2022-10-14T11:30:02.351Z,3.00
2022-10-14T11:32:49.174Z,3.92
2022-10-14T11:38:29.657Z,4.03
2022-10-14T11:41:07.599Z,3.67
2022-10-14T11:43:37.126Z,4.05
2022-10-14T11:46:12.713Z,3.97
2022-10-14T11:48:52.733Z,4.70
2022-10-14T11:51:35.949Z,4.60
2022-10-14T11:54:18.962Z,4.10
2022-10-14T11:57:07.303Z,4.90
2022-10-14T11:59:55.804Z,4.50
2022-10-14T12:02:46.895Z,4.15
2022-10-14T12:05:44.144Z,4.75
2022-10-14T12:08:33.170Z,5.03
2022-10-14T12:11:17.440Z,5.10
2022-10-14T12:13:57.962Z,5.50
2022-10-14T12:16:26.640Z,6.13
2022-10-14T12:18:56.739Z,4.95
2022-10-14T12:21:50.841Z,6.07
2022-10-14T12:24:41.566Z,7.38
2022-10-14T12:27:12.629Z,6.45
2022-10-14T12:29:45.786Z,5.95
2022-10-14T12:32:30.016Z,6.57
2022-10-14T12:35:01.313Z,8.15
2022-10-14T12:37:35.531Z,7.63
2022-10-14T12:40:03.126Z,8.50
2022-10-14T12:42:34.905Z,7.65
2022-10-14T12:45:14.741Z,7.38
2022-10-14T12:47:42.466Z,7.55
2022-10-14T12:50:16.166Z,8.10
2022-10-14T12:52:49.182Z,7.70
2022-10-14T12:55:22.550Z,7.80
2022-10-14T12:58:02.266Z,7.88
2022-10-14T13:00:38.812Z,8.93
2022-10-14T13:03:18.919Z,7.45
2022-10-14T13:05:49.956Z,8.43
2022-10-14T13:08:21.537Z,7.60
2022-10-14T13:10:59.392Z,8.40
2022-10-14T13:13:38.813Z,9.15
2022-10-14T13:16:08.360Z,9.32
2022-10-14T13:18:39.645Z,8.93
2022-10-14T13:21:08.454Z,8.50
2022-10-14T13:23:47.456Z,7.13
2022-10-14T13:26:41.047Z,8.63
2022-10-14T13:29:21.276Z,8.68
2022-10-14T13:32:19.149Z,7.97
2022-10-14T13:35:09.181Z,10.15
2022-10-14T13:37:44.800Z,9.90
2022-10-14T13:40:36.498Z,9.00
2022-10-14T13:43:21.169Z,8.25
2022-10-14T13:46:12.330Z,10.07
2022-10-14T13:48:50.365Z,9.27
2022-10-14T13:51:24.653Z,8.85
2022-10-14T13:54:20.667Z,9.20
2022-10-14T14:03:17.482Z,8.82
2022-10-14T14:05:44.400Z,8.68
2022-10-14T14:08:38.664Z,8.02
2022-10-14T14:11:17.409Z,9.45
2022-10-14T14:14:31.921Z,9.75
2022-10-14T14:17:32.629Z,8.03
2022-10-14T14:20:51.977Z,9.77
2022-10-14T14:24:10.206Z,8.75
2022-10-14T14:26:40.094Z,8.90
2022-10-14T14:29:22.624Z,9.93
2022-10-14T14:34:38.761Z,8.98
2022-10-14T14:38:06.245Z,8.55
2022-10-14T14:40:28.544Z,7.50
2022-10-14T14:43:03.716Z,8.60
2022-10-14T14:45:35.290Z,7.50
2022-10-14T14:48:07.869Z,9.13
2022-10-14T14:50:38.583Z,7.18
2022-10-14T14:53:30.286Z,7.93
2022-10-14T14:56:14.319Z,7.80
2022-10-14T14:58:50.746Z,7.07
2022-10-14T15:01:28.645Z,8.15
2022-10-14T15:04:15.601Z,7.30
2022-10-14T15:07:00.788Z,5.72
2022-10-14T15:09:36.174Z,6.07
2022-10-14T15:12:06.626Z,5.88
2022-10-14T15:14:42.378Z,5.90
2022-10-14T15:17:29.157Z,5.30
2022-10-14T15:20:00.519Z,6.45
2022-10-14T15:22:33.254Z,5.85
2022-10-14T15:25:11.082Z,5.95
2022-10-14T15:27:37.821Z,5.70
2022-10-14T15:30:17.724Z,5.80
2022-10-14T15:32:44.798Z,5.82
2022-10-14T15:35:20.190Z,6.05
2022-10-14T15:37:48.983Z,6.03
2022-10-14T15:40:32.462Z,6.00
2022-10-14T15:43:09.463Z,5.78
2022-10-14T15:45:37.600Z,4.95
2022-10-14T15:48:07.073Z,5.18
2022-10-14T15:50:37.446Z,4.60
2022-10-14T15:53:04.266Z,5.45
2022-10-14T15:55:35.382Z,4.35
2022-10-14T15:58:05.965Z,5.55
2022-10-14T16:00:35.038Z,5.03
2022-10-14T16:03:05.682Z,4.63
2022-10-14T16:05:33.967Z,4.75
2022-10-14T16:08:05.978Z,4.90
2022-10-14T16:10:34.565Z,6.25
2022-10-14T16:13:06.984Z,5.13
2022-10-14T16:15:57.855Z,6.00
2022-10-14T16:18:26.004Z,5.38
2022-10-14T16:20:57.434Z,5.55
2022-10-14T16:23:29.561Z,6.00
2022-10-14T16:25:58.844Z,6.43
2022-10-14T16:28:28.799Z,6.97
2022-10-14T16:30:55.752Z,8.07
2022-10-14T16:33:26.120Z,6.28
2022-10-14T16:35:57.294Z,7.75
2022-10-14T16:38:24.408Z,7.78
2022-10-14T16:40:58.983Z,7.00
2022-10-14T16:43:28.954Z,6.15
2022-10-14T16:46:00.582Z,4.75
2022-10-14T16:48:27.877Z,6.18
2022-10-14T16:50:55.311Z,5.80
2022-10-14T16:53:41.184Z,5.97
2022-10-14T16:56:36.091Z,4.93
2022-10-14T16:59:04.683Z,5.82
2022-10-14T17:01:32.136Z,6.35
2022-10-14T17:04:00.098Z,5.70
2022-10-14T17:06:27.417Z,5.40
2022-10-14T17:08:54.710Z,9.15
2022-10-14T17:11:21.678Z,5.60
2022-10-14T17:13:55.557Z,5.28
2022-10-14T17:16:22.500Z,5.97
2022-10-14T17:18:49.656Z,5.57
2022-10-14T17:21:16.805Z,5.95
2022-10-14T17:23:44.284Z,6.43
2022-10-14T17:26:15.635Z,5.82
2022-10-14T17:28:46.920Z,5.68
2022-10-14T17:31:27.833Z,6.28
2022-10-14T17:33:54.747Z,5.88
2022-10-14T17:36:23.802Z,6.75
2022-10-14T17:38:52.073Z,7.28
2022-10-14T17:41:19.803Z,7.38
2022-10-14T17:43:49.372Z,6.85
2022-10-14T17:46:20.482Z,6.63
2022-10-14T17:48:58.934Z,6.22
2022-10-14T17:51:26.935Z,7.75
2022-10-14T17:53:58.397Z,7.85
2022-10-14T17:56:26.731Z,7.20
2022-10-14T17:58:59.287Z,7.32
2022-10-14T18:01:37.696Z,8.50
2022-10-14T18:04:17.406Z,7.88
2022-10-14T18:06:48.421Z,8.27
2022-10-14T18:09:28.307Z,10.20
2022-10-14T18:12:14.004Z,10.93
2022-10-14T18:14:50.211Z,11.35
2022-10-14T18:17:20.375Z,10.40
2022-10-14T18:20:00.608Z,7.93
2022-10-14T18:22:30.367Z,8.88
2022-10-14T18:24:59.480Z,8.10
2022-10-14T18:27:28.827Z,10.25
2022-10-14T18:29:55.742Z,10.75
2022-10-14T18:32:22.647Z,8.95
2022-10-14T18:34:51.934Z,10.18
2022-10-14T18:37:18.662Z,9.43
2022-10-14T18:39:47.476Z,9.13
2022-10-14T18:42:17.167Z,9.10
2022-10-14T18:44:50.582Z,10.85
2022-10-14T18:47:19.366Z,11.07
2022-10-14T18:49:48.624Z,9.75
2022-10-14T18:52:15.416Z,16.85
2022-10-14T18:54:43.549Z,10.27
2022-10-14T18:57:14.794Z,9.88
2022-10-14T18:59:41.992Z,9.65
2022-10-14T19:02:13.994Z,9.90
2022-10-14T19:04:40.915Z,9.77
2022-10-14T19:07:11.878Z,9.68
2022-10-14T19:09:42.956Z,10.10
2022-10-14T19:12:28.954Z,10.52
2022-10-14T19:15:07.120Z,11.70
2022-10-14T19:17:34.925Z,10.60
2022-10-14T19:20:14.406Z,11.68
2022-10-14T19:23:08.935Z,10.60
2022-10-14T19:26:03.352Z,9.80
2022-10-14T19:28:35.161Z,9.55
2022-10-14T19:34:26.885Z,9.13
2022-10-14T19:37:22.345Z,10.00
2022-10-14T19:39:54.529Z,8.85
2022-10-14T19:42:24.727Z,11.15
2022-10-14T19:45:05.755Z,10.30
2022-10-14T19:47:36.182Z,14.55
2022-10-14T19:50:04.583Z,11.77
2022-10-14T19:52:32.460Z,9.80
2022-10-14T19:55:01.581Z,10.48
2022-10-14T19:57:31.521Z,10.43
2022-10-14T20:00:08.689Z,11.52
2022-10-14T20:02:39.654Z,11.52
2022-10-14T20:05:10.616Z,10.40
2022-10-14T20:07:38.226Z,13.13
2022-10-14T20:10:09.958Z,13.45
2022-10-14T20:12:38.406Z,12.43
2022-10-14T20:15:09.905Z,15.27
2022-10-14T20:17:42.436Z,13.43
2022-10-14T20:20:09.845Z,14.82
2022-10-14T20:22:38.000Z,16.00
2022-10-14T20:25:05.420Z,14.63
2022-10-14T20:27:32.429Z,14.43
2022-10-14T20:29:59.182Z,15.18
2022-10-14T20:32:27.586Z,15.27
2022-10-14T20:34:54.446Z,14.88
2022-10-14T20:37:27.238Z,14.70
2022-10-14T20:39:55.299Z,14.02
2022-10-14T20:42:23.516Z,15.35
2022-10-14T20:44:53.479Z,16.30
2022-10-14T20:47:27.633Z,15.02
2022-10-14T20:49:56.884Z,14.40
2022-10-14T20:52:24.970Z,15.52
2022-10-14T20:54:53.126Z,14.93
2022-10-14T20:57:22.429Z,14.48
2022-10-14T20:59:50.807Z,14.68
2022-10-14T21:02:24.783Z,15.48
2022-10-14T21:04:52.782Z,13.73
2022-10-14T21:07:21.839Z,11.75
2022-10-14T21:09:55.313Z,12.02
2022-10-14T21:12:31.337Z,12.70
2022-10-14T21:15:01.270Z,12.07
2022-10-14T21:17:30.251Z,12.60
2022-10-14T21:19:57.329Z,12.60
2022-10-14T21:22:26.406Z,11.98
2022-10-14T21:24:53.889Z,10.85
2022-10-14T21:27:21.910Z,11.30
2022-10-14T21:29:51.423Z,11.75
2022-10-14T21:33:09.931Z,10.10
2022-10-14T21:35:38.083Z,9.02
2022-10-14T21:38:08.395Z,9.93
2022-10-14T21:40:35.254Z,9.70
2022-10-14T21:43:08.129Z,8.85
2022-10-14T21:45:38.970Z,9.90
2022-10-14T21:48:09.469Z,9.38
2022-10-14T21:50:45.336Z,8.65
2022-10-14T21:53:13.913Z,10.45
2022-10-14T21:55:45.901Z,8.98
2022-10-14T21:58:14.916Z,8.88
2022-10-14T22:01:44.320Z,7.93
2022-10-14T22:04:13.606Z,8.88
2022-10-14T22:07:10.815Z,8.60
2022-10-14T22:09:37.648Z,7.93
2022-10-14T22:12:06.579Z,7.53
2022-10-14T22:14:35.895Z,8.55
2022-10-14T22:17:02.827Z,7.78
2022-10-14T22:19:31.504Z,9.30
2022-10-14T22:22:04.281Z,7.82
2022-10-14T22:24:38.130Z,8.93
2022-10-14T22:27:04.940Z,9.20
2022-10-14T22:29:31.923Z,8.15
2022-10-14T22:32:03.141Z,9.20
2022-10-14T22:34:30.987Z,8.25
2022-10-14T22:37:01.665Z,7.70
2022-10-14T22:39:28.541Z,8.20
2022-10-14T22:41:57.641Z,7.85
2022-10-14T22:44:25.624Z,8.98
2022-10-14T22:46:53.403Z,7.32
2022-10-14T22:49:20.258Z,7.53
2022-10-14T22:51:51.939Z,7.32
2022-10-14T22:54:22.737Z,7.63
2022-10-14T22:57:17.654Z,8.18
2022-10-14T22:59:44.423Z,7.22
2022-10-14T23:02:11.785Z,8.25
2022-10-14T23:04:38.571Z,8.02
2022-10-14T23:07:07.003Z,6.80
2022-10-14T23:09:36.963Z,8.20
2022-10-14T23:12:05.968Z,8.05
2022-10-14T23:14:32.995Z,7.65
2022-10-14T23:17:00.290Z,7.63
2022-10-14T23:19:27.363Z,7.50
2022-10-14T23:21:54.856Z,7.03
2022-10-14T23:24:21.923Z,7.60
2022-10-14T23:26:49.431Z,7.35
2022-10-14T23:29:17.349Z,8.00
2022-10-14T23:31:46.338Z,8.00
2022-10-14T23:34:14.201Z,7.22
2022-10-14T23:36:41.934Z,7.80
2022-10-14T23:39:09.360Z,7.32
2022-10-14T23:41:36.325Z,7.07
2022-10-14T23:44:03.265Z,8.10
2022-10-14T23:46:31.342Z,6.70
2022-10-14T23:49:07.750Z,7.82
2022-10-14T23:51:45.154Z,8.00
2022-10-14T23:54:12.066Z,8.05
2022-10-14T23:56:38.950Z,7.55
2022-10-14T23:59:05.878Z,7.13
